Terminal Aerodrome Forecast
Issued by NWS

Home | Current Version | Previous Version | Text Only | Print | Product List | Glossary On
Versions: 1 2 3 4 5 6 7 8 9 10 11 12 13 14 15 16 17 18 19 20 21 22 23 24 25 26 27
493
FTUS43 KDLH 071727
TAFHYR
TAF
KHYR 071727Z 0718/0818 24010KT P6SM -RA OVC015
     FM072000 26012KT 4SM -RASN OVC015
     FM080300 29014G22KT 3SM -SN BLSN OVC015
     FM080900 32014G22KT 4SM -SN BLSN OVC015
     FM081600 34012G20KT P6SM -SN OVC025=

USA.gov is the U.S. government's official web portal to all federal, state and local government web resources and services.